createdAt,value
2022-09-17T00:02:09.030Z,97.40
2022-09-17T00:04:40.362Z,97.23
2022-09-17T00:07:12.725Z,97.18
2022-09-17T00:09:44.322Z,97.10
2022-09-17T00:12:15.618Z,97.04
2022-09-17T00:14:46.973Z,96.92
2022-09-17T00:17:18.273Z,96.92
2022-09-17T00:19:49.832Z,96.88
2022-09-17T00:22:21.127Z,97.13
2022-09-17T00:24:52.680Z,97.06
2022-09-17T00:27:24.067Z,96.86
2022-09-17T00:29:55.348Z,96.77
2022-09-17T00:32:27.369Z,96.86
2022-09-17T00:34:58.817Z,96.85
2022-09-17T00:37:30.090Z,97.05
2022-09-17T00:40:01.608Z,96.83
2022-09-17T00:42:33.080Z,96.61
2022-09-17T00:45:05.296Z,96.76
2022-09-17T00:47:41.243Z,96.71
2022-09-17T00:50:17.723Z,96.98
2022-09-17T00:52:52.978Z,96.92
2022-09-17T00:55:27.315Z,96.99
2022-09-17T00:58:02.177Z,97.07
2022-09-17T01:00:34.084Z,96.83
2022-09-17T01:03:05.567Z,97.02
2022-09-17T01:06:03.101Z,96.90
2022-09-17T01:08:55.011Z,97.13
2022-09-17T01:11:53.529Z,96.80
2022-09-17T01:14:46.423Z,97.06
2022-09-17T01:17:20.500Z,97.31
2022-09-17T01:20:15.243Z,97.40
2022-09-17T01:22:58.576Z,97.33
2022-09-17T01:25:56.744Z,97.72
2022-09-17T01:28:37.718Z,97.52
2022-09-17T01:31:22.888Z,97.44
2022-09-17T01:34:20.875Z,97.26
2022-09-17T01:37:09.675Z,97.57
2022-09-17T01:40:00.848Z,97.69
2022-09-17T01:42:51.415Z,97.66
2022-09-17T01:45:30.611Z,97.47
2022-09-17T01:48:10.511Z,97.20
2022-09-17T01:50:53.425Z,97.56
2022-09-17T01:53:31.417Z,97.25
2022-09-17T01:56:04.168Z,97.02
2022-09-17T01:58:45.951Z,97.05
2022-09-17T02:01:22.218Z,96.97
2022-09-17T02:04:00.460Z,96.96
2022-09-17T02:06:37.693Z,97.00
2022-09-17T02:09:17.713Z,97.37
2022-09-17T02:11:58.879Z,97.08
2022-09-17T02:14:38.548Z,97.27
2022-09-17T02:17:37.074Z,97.15
2022-09-17T02:20:09.232Z,97.12
2022-09-17T02:22:55.479Z,97.13
2022-09-17T02:25:34.698Z,97.10
2022-09-17T02:28:26.078Z,97.09
2022-09-17T02:30:57.583Z,97.12
2022-09-17T02:33:30.695Z,97.12
2022-09-17T02:36:02.460Z,97.12
2022-09-17T02:38:33.842Z,97.21
2022-09-17T02:41:23.053Z,97.18
2022-09-17T02:44:04.151Z,97.37
2022-09-17T02:47:09.451Z,97.38
2022-09-17T02:50:00.575Z,97.32
2022-09-17T02:52:55.960Z,97.45
2022-09-17T02:55:36.106Z,97.33
2022-09-17T02:58:21.369Z,97.17
2022-09-17T03:00:55.802Z,97.64
2022-09-17T03:03:36.672Z,97.37
2022-09-17T03:06:08.129Z,97.24
2022-09-17T03:08:42.110Z,97.48
2022-09-17T03:11:13.940Z,97.34
2022-09-17T03:13:45.573Z,97.19
2022-09-17T03:16:16.951Z,97.31
2022-09-17T03:18:48.297Z,97.29
2022-09-17T03:21:19.600Z,97.58
2022-09-17T03:23:51.124Z,97.00
2022-09-17T03:26:22.419Z,97.09
2022-09-17T03:28:53.708Z,97.26
2022-09-17T03:31:25.150Z,97.30
2022-09-17T03:33:56.725Z,96.99
2022-09-17T03:36:28.389Z,97.26
2022-09-17T03:39:00.270Z,97.23
2022-09-17T03:41:31.654Z,97.26
2022-09-17T03:44:03.294Z,97.27
2022-09-17T03:46:34.927Z,97.30
2022-09-17T03:49:06.217Z,97.08
2022-09-17T03:51:37.490Z,97.40
2022-09-17T03:54:09.258Z,97.26
2022-09-17T03:56:40.573Z,97.49
2022-09-17T03:59:11.876Z,97.00
2022-09-17T04:01:43.380Z,97.10
2022-09-17T04:04:14.681Z,96.89
2022-09-17T04:06:45.994Z,97.45
2022-09-17T04:09:17.321Z,97.59
2022-09-17T04:11:48.656Z,97.65
2022-09-17T04:14:19.900Z,97.04
2022-09-17T04:16:51.198Z,97.40
2022-09-17T04:19:22.504Z,97.28
2022-09-17T04:21:53.765Z,97.35
2022-09-17T04:24:25.007Z,97.50
2022-09-17T04:26:56.266Z,97.58
2022-09-17T04:29:28.310Z,97.54
2022-09-17T04:31:59.661Z,97.05
2022-09-17T04:34:31.893Z,97.50
2022-09-17T04:37:03.218Z,97.22
2022-09-17T04:39:34.558Z,97.15
2022-09-17T04:42:05.946Z,97.42
2022-09-17T04:44:37.284Z,97.22
2022-09-17T04:47:08.660Z,97.50
2022-09-17T04:49:39.942Z,97.52
2022-09-17T04:52:11.226Z,97.14
2022-09-17T04:54:42.573Z,97.38
2022-09-17T04:57:13.828Z,97.51
2022-09-17T04:59:46.261Z,97.62
2022-09-17T05:02:17.714Z,97.44
2022-09-17T05:04:50.644Z,97.32
2022-09-17T05:07:21.903Z,97.30
2022-09-17T05:09:53.723Z,97.52
2022-09-17T05:12:25.015Z,97.58
2022-09-17T05:14:56.303Z,97.54
2022-09-17T05:17:27.644Z,97.42
2022-09-17T05:19:58.958Z,97.33
2022-09-17T05:22:30.285Z,97.79
2022-09-17T05:25:01.546Z,97.60
2022-09-17T05:27:32.858Z,97.28
2022-09-17T05:30:04.943Z,97.17
2022-09-17T05:32:36.655Z,96.91
2022-09-17T05:35:09.355Z,97.44
2022-09-17T05:37:40.856Z,97.20
2022-09-17T05:40:12.277Z,97.36
2022-09-17T05:42:43.814Z,97.35
2022-09-17T05:45:15.092Z,97.45
2022-09-17T05:47:46.363Z,97.37
2022-09-17T05:50:17.621Z,96.97
2022-09-17T05:52:49.010Z,96.93
2022-09-17T05:55:22.269Z,97.15
2022-09-17T05:57:53.606Z,96.79
2022-09-17T06:00:24.945Z,96.96
2022-09-17T06:02:57.795Z,96.79
2022-09-17T06:05:29.210Z,97.38
2022-09-17T06:08:00.613Z,96.80
2022-09-17T06:10:32.290Z,97.04
2022-09-17T06:13:03.786Z,97.00
2022-09-17T06:15:35.081Z,97.13
2022-09-17T06:18:06.336Z,97.11
2022-09-17T06:20:37.590Z,96.63
2022-09-17T06:23:12.705Z,96.37
2022-09-17T06:25:57.464Z,97.05
2022-09-17T06:28:29.384Z,97.25
2022-09-17T06:31:05.490Z,97.67
2022-09-17T06:33:36.825Z,97.77
2022-09-17T06:36:13.669Z,98.17
2022-09-17T06:38:45.912Z,98.46
2022-09-17T06:41:17.998Z,98.86
2022-09-17T06:43:52.694Z,98.74
2022-09-17T06:46:24.112Z,98.94
2022-09-17T06:48:55.686Z,99.06
2022-09-17T06:51:26.938Z,98.37
2022-09-17T06:53:58.288Z,97.37
2022-09-17T06:56:29.539Z,97.34
2022-09-17T06:59:01.397Z,96.85
2022-09-17T07:01:32.989Z,97.01
2022-09-17T07:04:04.400Z,96.85
2022-09-17T07:06:35.679Z,96.64
2022-09-17T07:09:10.849Z,96.60
2022-09-17T07:11:42.505Z,96.17
2022-09-17T07:14:13.824Z,96.56
2022-09-17T07:16:45.152Z,96.99
2022-09-17T07:19:16.697Z,96.80
2022-09-17T07:21:49.030Z,96.73
2022-09-17T07:24:20.393Z,96.15
2022-09-17T07:26:51.769Z,95.08
2022-09-17T07:29:26.191Z,95.06
2022-09-17T07:31:59.351Z,95.21
2022-09-17T07:34:30.656Z,94.90
2022-09-17T07:37:01.928Z,96.09
2022-09-17T07:39:33.345Z,95.42
2022-09-17T07:42:04.777Z,95.45
2022-09-17T07:44:36.419Z,94.54
2022-09-17T07:47:08.131Z,94.35
2022-09-17T07:49:39.501Z,94.07
2022-09-17T07:52:10.858Z,94.63
2022-09-17T07:54:42.404Z,94.74
2022-09-17T07:57:13.728Z,94.10
2022-09-17T07:59:44.988Z,93.97
2022-09-17T08:02:18.697Z,94.84
2022-09-17T08:04:54.041Z,94.45
2022-09-17T08:07:25.354Z,93.88
2022-09-17T08:09:56.835Z,92.96
2022-09-17T08:12:28.114Z,92.99
2022-09-17T08:14:59.501Z,92.81
2022-09-17T08:17:31.668Z,92.53
2022-09-17T08:20:03.071Z,93.66
2022-09-17T08:22:34.612Z,92.00
2022-09-17T08:25:09.862Z,88.74
2022-09-17T08:27:41.295Z,88.77
2022-09-17T08:30:12.565Z,90.08
2022-09-17T08:32:43.821Z,91.64
2022-09-17T08:35:16.343Z,91.54
2022-09-17T08:37:47.647Z,91.85
2022-09-17T08:40:22.349Z,92.01
2022-09-17T08:43:02.307Z,92.88
2022-09-17T08:45:33.627Z,91.94
2022-09-17T08:48:05.224Z,93.19
2022-09-17T08:50:41.810Z,94.64
2022-09-17T08:53:47.496Z,95.30
2022-09-17T08:56:21.291Z,95.83
2022-09-17T08:59:04.214Z,96.10
2022-09-17T09:01:48.277Z,96.02
2022-09-17T09:04:57.042Z,95.01
2022-09-17T09:07:42.381Z,95.62
2022-09-17T09:10:29.355Z,95.70
2022-09-17T09:13:01.838Z,95.52
2022-09-17T09:15:55.087Z,95.81
2022-09-17T09:18:30.318Z,95.31
2022-09-17T09:21:22.615Z,94.40
2022-09-17T09:23:58.534Z,95.19
2022-09-17T09:26:58.365Z,93.62
2022-09-17T09:29:30.001Z,92.23
2022-09-17T09:32:34.289Z,92.19
2022-09-17T09:35:24.244Z,90.88
2022-09-17T09:38:40.723Z,91.71
2022-09-17T09:41:27.082Z,93.38
2022-09-17T09:44:05.781Z,93.75
2022-09-17T09:47:12.358Z,93.26
2022-09-17T09:50:21.380Z,93.32
2022-09-17T09:53:11.556Z,93.59
2022-09-17T09:56:00.802Z,93.36
2022-09-17T09:58:36.199Z,92.23
2022-09-17T10:01:22.262Z,91.29
2022-09-17T10:03:55.716Z,91.42
2022-09-17T10:06:30.768Z,90.49
2022-09-17T10:09:03.008Z,90.18
2022-09-17T10:11:38.918Z,90.36
2022-09-17T10:14:16.451Z,90.51
2022-09-17T10:16:47.776Z,91.04
2022-09-17T10:19:24.885Z,90.29
2022-09-17T10:21:56.359Z,90.48
2022-09-17T10:24:32.048Z,90.02
2022-09-17T10:27:14.330Z,89.78
2022-09-17T10:29:49.082Z,90.10
2022-09-17T10:32:22.678Z,90.41
2022-09-17T10:34:58.482Z,89.92
2022-09-17T10:37:41.478Z,90.48
2022-09-17T10:40:18.848Z,90.89
2022-09-17T10:43:11.434Z,91.66
2022-09-17T10:45:46.275Z,92.46
2022-09-17T10:48:20.424Z,92.16
2022-09-17T10:50:56.443Z,91.98
2022-09-17T10:53:27.896Z,91.75
2022-09-17T10:56:22.888Z,90.83
2022-09-17T10:59:20.670Z,90.94
2022-09-17T11:02:10.717Z,91.00
2022-09-17T11:05:03.580Z,91.04
2022-09-17T11:07:47.030Z,91.61
2022-09-17T11:10:28.021Z,91.56
2022-09-17T11:13:24.577Z,91.89
2022-09-17T11:16:11.432Z,92.08
2022-09-17T11:18:46.706Z,91.65
2022-09-17T11:21:35.766Z,91.98
2022-09-17T11:24:36.861Z,91.66
2022-09-17T11:27:28.847Z,91.71
2022-09-17T11:30:19.612Z,91.72
2022-09-17T11:33:13.238Z,91.79
2022-09-17T11:35:51.701Z,91.87
2022-09-17T11:38:39.559Z,91.72
2022-09-17T11:41:33.102Z,91.99
2022-09-17T11:44:20.697Z,91.71
2022-09-17T11:47:03.634Z,91.58
2022-09-17T11:49:45.247Z,92.06
2022-09-17T11:52:26.786Z,92.04
2022-09-17T11:55:21.144Z,92.72
2022-09-17T11:57:59.329Z,93.10
2022-09-17T12:00:42.766Z,93.19
2022-09-17T12:03:24.750Z,93.31
2022-09-17T12:06:00.653Z,93.53
2022-09-17T12:08:56.665Z,93.74
2022-09-17T12:12:31.743Z,94.06
2022-09-17T12:15:14.455Z,94.32
2022-09-17T12:18:31.887Z,94.40
2022-09-17T12:21:13.551Z,95.20
2022-09-17T12:23:50.093Z,95.07
2022-09-17T12:26:30.685Z,94.47
2022-09-17T12:29:26.830Z,95.03
2022-09-17T12:32:35.476Z,95.07
2022-09-17T12:36:02.396Z,94.82
2022-09-17T12:38:36.604Z,95.01
2022-09-17T12:41:21.021Z,95.38
2022-09-17T12:44:07.870Z,95.54
2022-09-17T12:47:07.097Z,95.11
2022-09-17T12:50:04.983Z,95.38
2022-09-17T12:52:57.371Z,95.96
2022-09-17T12:55:50.258Z,96.18
2022-09-17T12:58:48.906Z,96.30
2022-09-17T13:01:36.249Z,95.55
2022-09-17T13:05:00.907Z,94.66
2022-09-17T13:07:57.559Z,94.39
2022-09-17T13:10:46.979Z,92.61
2022-09-17T13:13:21.209Z,93.62
2022-09-17T13:16:13.281Z,92.93
2022-09-17T13:19:16.190Z,93.12
2022-09-17T13:22:16.676Z,92.92
2022-09-17T13:25:02.865Z,93.55
2022-09-17T13:27:37.817Z,92.99
2022-09-17T13:30:11.168Z,93.23
2022-09-17T13:32:44.242Z,92.96
2022-09-17T13:35:15.606Z,93.29
2022-09-17T13:37:52.779Z,92.65
2022-09-17T13:40:35.061Z,93.15
2022-09-17T13:43:11.920Z,93.29
2022-09-17T13:46:02.825Z,92.85
2022-09-17T13:48:36.023Z,93.06
2022-09-17T13:51:42.837Z,93.80
2022-09-17T13:54:15.595Z,93.92
2022-09-17T13:56:52.169Z,94.35
2022-09-17T13:59:27.669Z,95.08
2022-09-17T14:02:08.102Z,95.02
2022-09-17T14:04:42.398Z,95.03
2022-09-17T14:07:26.602Z,94.08
2022-09-17T14:09:58.993Z,94.00
2022-09-17T14:12:41.119Z,94.13
2022-09-17T14:15:55.146Z,94.11
2022-09-17T14:18:26.537Z,93.25
2022-09-17T14:21:09.616Z,92.90
2022-09-17T14:23:47.368Z,93.28
2022-09-17T14:26:37.179Z,92.95
2022-09-17T14:29:31.690Z,93.58
2022-09-17T14:32:06.613Z,93.26
2022-09-17T14:34:38.273Z,92.49
2022-09-17T14:37:17.461Z,92.55
2022-09-17T14:39:49.924Z,92.55
2022-09-17T14:42:29.834Z,92.16
2022-09-17T14:45:05.480Z,91.89
2022-09-17T14:47:36.878Z,91.62
2022-09-17T14:50:20.405Z,92.02
2022-09-17T14:52:54.799Z,92.46
2022-09-17T14:55:31.027Z,92.92
2022-09-17T14:58:04.622Z,92.33
2022-09-17T15:00:38.186Z,92.94
2022-09-17T15:03:21.436Z,92.99
2022-09-17T15:05:53.430Z,93.47
2022-09-17T15:08:29.099Z,93.67
2022-09-17T15:11:11.028Z,93.36
2022-09-17T15:13:50.797Z,92.60
2022-09-17T15:16:25.588Z,92.49
2022-09-17T15:19:02.134Z,92.82
2022-09-17T15:21:44.022Z,93.35
2022-09-17T15:24:26.119Z,93.69
2022-09-17T15:26:59.709Z,93.87
2022-09-17T15:29:34.518Z,94.19
2022-09-17T15:32:06.532Z,94.31
2022-09-17T15:34:37.797Z,94.53
2022-09-17T15:37:21.497Z,95.03
2022-09-17T15:39:55.546Z,94.81
2022-09-17T15:42:29.797Z,94.99
2022-09-17T15:45:17.670Z,95.14
2022-09-17T15:47:57.727Z,95.30
2022-09-17T15:50:31.801Z,95.61
2022-09-17T15:53:08.940Z,95.62
2022-09-17T15:55:45.862Z,95.76
2022-09-17T15:58:35.340Z,96.07
2022-09-17T16:01:29.746Z,96.21
2022-09-17T16:04:24.609Z,96.19
2022-09-17T16:07:12.325Z,95.99
2022-09-17T16:09:49.967Z,96.32
2022-09-17T16:12:23.849Z,96.24
2022-09-17T16:14:57.293Z,96.68
2022-09-17T16:17:36.279Z,96.44
2022-09-17T16:20:23.481Z,96.71
2022-09-17T16:22:55.056Z,96.49
2022-09-17T16:25:28.147Z,96.56
2022-09-17T16:28:02.176Z,96.54
2022-09-17T16:30:33.941Z,96.62
2022-09-17T16:33:06.821Z,96.36
2022-09-17T16:35:41.271Z,96.36
2022-09-17T16:38:13.242Z,96.25
2022-09-17T16:40:49.626Z,96.14
2022-09-17T16:43:21.341Z,95.75
2022-09-17T16:46:10.467Z,96.19
2022-09-17T16:48:43.618Z,95.90
2022-09-17T16:51:14.989Z,96.03
2022-09-17T16:53:46.445Z,96.35
2022-09-17T16:56:17.732Z,96.22
2022-09-17T16:58:49.148Z,96.16
2022-09-17T17:01:20.730Z,96.40
2022-09-17T17:03:53.314Z,96.55
2022-09-17T17:06:24.714Z,96.34
2022-09-17T17:09:00.948Z,96.34
2022-09-17T17:11:32.209Z,96.30
2022-09-17T17:14:05.233Z,96.56
2022-09-17T17:16:37.578Z,96.63
2022-09-17T17:19:09.300Z,96.93
2022-09-17T17:21:42.985Z,96.79
2022-09-17T17:24:17.826Z,96.59
2022-09-17T17:26:49.242Z,96.90
2022-09-17T17:29:20.522Z,97.14
2022-09-17T17:31:51.851Z,97.14
2022-09-17T17:34:23.142Z,97.39
2022-09-17T17:36:54.468Z,97.33
2022-09-17T17:39:25.859Z,97.12
2022-09-17T17:41:57.207Z,97.18
2022-09-17T17:44:28.525Z,97.25
2022-09-17T17:46:59.868Z,97.29
2022-09-17T17:49:31.160Z,97.14
2022-09-17T17:52:02.592Z,97.30
2022-09-17T17:54:34.142Z,97.35
2022-09-17T17:57:05.474Z,97.37
2022-09-17T17:59:36.750Z,97.19
2022-09-17T18:02:09.442Z,97.20
2022-09-17T18:04:40.856Z,97.42
2022-09-17T18:07:12.345Z,97.14
2022-09-17T18:09:44.369Z,97.00
2022-09-17T18:12:15.714Z,97.20
2022-09-17T18:14:47.014Z,97.17
2022-09-17T18:17:18.555Z,97.21
2022-09-17T18:19:51.373Z,97.08
2022-09-17T18:22:23.077Z,97.43
2022-09-17T18:24:54.398Z,97.87
2022-09-17T18:27:25.719Z,97.83
2022-09-17T18:29:57.162Z,97.79
2022-09-17T18:32:29.083Z,97.73
2022-09-17T18:35:00.348Z,97.76
2022-09-17T18:37:31.624Z,97.84
2022-09-17T18:40:03.444Z,97.97
2022-09-17T18:42:34.790Z,98.17
2022-09-17T18:45:07.409Z,98.35
2022-09-17T18:47:38.819Z,98.36
2022-09-17T18:50:10.573Z,98.24
2022-09-17T18:52:42.023Z,97.98
2022-09-17T18:55:13.536Z,98.18
2022-09-17T18:57:44.946Z,97.88
2022-09-17T19:00:18.782Z,98.10
2022-09-17T19:02:50.541Z,97.97
2022-09-17T19:05:21.811Z,98.05
2022-09-17T19:07:54.149Z,97.80
2022-09-17T19:10:26.518Z,97.62
2022-09-17T19:12:58.063Z,97.45
2022-09-17T19:15:30.173Z,97.70
2022-09-17T19:18:01.510Z,97.57
2022-09-17T19:20:37.117Z,97.32
2022-09-17T19:23:09.038Z,97.67
2022-09-17T19:25:40.474Z,97.75
2022-09-17T19:28:11.853Z,97.57
2022-09-17T19:30:43.317Z,97.71
2022-09-17T19:33:14.659Z,97.47
2022-09-17T19:35:45.993Z,97.60
2022-09-17T19:38:17.534Z,97.62
2022-09-17T19:41:03.015Z,97.65
2022-09-17T19:43:34.379Z,97.49
2022-09-17T19:46:10.419Z,97.56
2022-09-17T19:49:00.591Z,97.88
2022-09-17T19:51:32.098Z,97.58
2022-09-17T19:54:06.753Z,97.63
2022-09-17T19:56:40.068Z,97.34
2022-09-17T19:59:11.474Z,97.63
2022-09-17T20:01:48.673Z,97.71
2022-09-17T20:04:20.875Z,97.35
2022-09-17T20:06:52.169Z,97.61
2022-09-17T20:09:23.494Z,97.59
2022-09-17T20:11:55.438Z,97.67
2022-09-17T20:14:27.612Z,97.59
2022-09-17T20:16:58.882Z,97.37
2022-09-17T20:19:30.142Z,97.71
2022-09-17T20:22:01.405Z,97.37
2022-09-17T20:24:33.808Z,97.52
2022-09-17T20:27:05.224Z,97.37
2022-09-17T20:29:36.494Z,97.43
2022-09-17T20:32:07.746Z,97.51
2022-09-17T20:34:39.295Z,97.50
2022-09-17T20:37:13.800Z,97.10
2022-09-17T20:39:45.378Z,97.26
2022-09-17T20:42:16.649Z,97.69
2022-09-17T20:44:47.906Z,97.39
2022-09-17T20:47:19.168Z,97.59
2022-09-17T20:49:50.469Z,97.31
2022-09-17T20:52:21.723Z,97.46
2022-09-17T20:54:53.155Z,97.15
2022-09-17T20:57:25.227Z,97.62
2022-09-17T21:00:00.302Z,97.32
2022-09-17T21:02:31.818Z,97.60
2022-09-17T21:05:03.370Z,97.20
2022-09-17T21:07:34.644Z,97.79
2022-09-17T21:10:06.488Z,97.41
2022-09-17T21:12:37.740Z,97.10
2022-09-17T21:15:09.382Z,97.29
2022-09-17T21:17:42.136Z,97.60
2022-09-17T21:20:13.941Z,97.30
2022-09-17T21:22:45.223Z,97.45
2022-09-17T21:25:16.542Z,97.35
2022-09-17T21:27:47.874Z,97.51
2022-09-17T21:30:19.990Z,97.29
2022-09-17T21:32:53.045Z,97.22
2022-09-17T21:35:29.796Z,97.01
2022-09-17T21:38:01.063Z,97.47
2022-09-17T21:40:32.331Z,97.12
2022-09-17T21:43:03.673Z,97.58
2022-09-17T21:45:34.921Z,97.45
2022-09-17T21:48:06.220Z,97.49
2022-09-17T21:50:37.511Z,97.28
2022-09-17T21:53:08.767Z,97.61
2022-09-17T21:55:40.051Z,97.53
2022-09-17T21:58:11.319Z,97.67
2022-09-17T22:00:42.873Z,97.49
2022-09-17T22:03:14.359Z,97.65
2022-09-17T22:05:45.653Z,97.47
2022-09-17T22:08:16.982Z,97.67
2022-09-17T22:10:48.298Z,97.67
2022-09-17T22:13:19.686Z,97.50
2022-09-17T22:16:03.930Z,97.53
2022-09-17T22:18:37.253Z,97.63
2022-09-17T22:21:14.045Z,97.76
2022-09-17T22:23:45.375Z,97.93
2022-09-17T22:26:18.176Z,98.29
2022-09-17T22:28:50.285Z,98.53
2022-09-17T22:31:22.166Z,98.06
2022-09-17T22:33:53.616Z,98.35
2022-09-17T22:36:26.417Z,98.40
2022-09-17T22:38:58.442Z,98.17
2022-09-17T22:41:32.444Z,98.36
2022-09-17T22:44:06.605Z,98.13
2022-09-17T22:46:39.410Z,98.21
2022-09-17T22:49:11.444Z,97.64
2022-09-17T22:51:43.815Z,97.47
2022-09-17T22:54:17.153Z,97.40
2022-09-17T22:56:48.889Z,97.63
2022-09-17T22:59:21.566Z,97.11
2022-09-17T23:01:52.878Z,97.14
2022-09-17T23:04:24.270Z,97.33
2022-09-17T23:06:55.576Z,97.10
2022-09-17T23:09:26.831Z,97.05
2022-09-17T23:11:58.081Z,97.39
2022-09-17T23:14:29.361Z,97.14
2022-09-17T23:17:00.606Z,97.10
2022-09-17T23:19:31.898Z,96.96
2022-09-17T23:22:03.198Z,97.60
2022-09-17T23:24:37.670Z,97.57
2022-09-17T23:27:08.949Z,97.60
2022-09-17T23:29:40.270Z,97.42
2022-09-17T23:32:11.565Z,97.67
2022-09-17T23:34:42.966Z,97.54
2022-09-17T23:37:14.332Z,97.38
2022-09-17T23:39:45.610Z,97.47
2022-09-17T23:42:16.860Z,97.22
2022-09-17T23:44:48.150Z,97.38
2022-09-17T23:47:19.515Z,97.16
2022-09-17T23:49:50.782Z,97.45
2022-09-17T23:52:22.600Z,97.63
2022-09-17T23:54:58.235Z,97.63
2022-09-17T23:57:30.355Z,97.44
